createdAt,value
2022-10-03T00:01:25.505Z,11.86
2022-10-03T00:03:00.800Z,11.98
2022-10-03T00:04:27.035Z,12.00
2022-10-03T00:05:52.039Z,11.94
2022-10-03T00:07:17.717Z,11.80
2022-10-03T00:08:47.634Z,11.86
2022-10-03T00:09:58.469Z,11.71
2022-10-03T00:11:17.814Z,11.77
2022-10-03T00:12:38.621Z,11.68
2022-10-03T00:13:53.417Z,11.74
2022-10-03T00:15:21.896Z,11.82
2022-10-03T00:16:50.544Z,11.89
2022-10-03T00:18:06.158Z,12.02
2022-10-03T00:19:25.560Z,11.78
2022-10-03T00:20:56.035Z,11.82
2022-10-03T00:22:31.394Z,11.82
2022-10-03T00:23:58.221Z,11.86
2022-10-03T00:25:03.021Z,11.86
2022-10-03T00:26:28.423Z,11.92
2022-10-03T00:27:41.003Z,11.98
2022-10-03T00:29:19.173Z,11.77
2022-10-03T00:30:23.372Z,11.73
2022-10-03T00:31:46.487Z,11.73
2022-10-03T00:32:57.625Z,11.62
2022-10-03T00:34:02.527Z,11.73
2022-10-03T00:35:20.102Z,11.72
2022-10-03T00:36:55.597Z,11.76
2022-10-03T00:38:16.338Z,11.81
2022-10-03T00:39:49.432Z,11.85
2022-10-03T00:41:03.539Z,11.79
2022-10-03T00:42:24.271Z,11.81
2022-10-03T00:43:52.480Z,11.79
2022-10-03T00:45:22.501Z,11.74
2022-10-03T00:47:01.575Z,11.85
2022-10-03T00:48:37.589Z,11.87
2022-10-03T00:50:04.210Z,11.82
2022-10-03T00:51:27.631Z,11.78
2022-10-03T00:52:50.076Z,11.85
2022-10-03T00:54:16.580Z,11.81
2022-10-03T00:55:36.990Z,11.85
2022-10-03T00:57:10.121Z,11.91
2022-10-03T00:58:39.158Z,11.95
2022-10-03T01:00:04.408Z,11.88
2022-10-03T01:01:29.301Z,11.83
2022-10-03T01:02:52.350Z,11.87
2022-10-03T01:04:26.862Z,11.86
2022-10-03T01:05:38.832Z,11.90
2022-10-03T01:06:49.619Z,11.75
2022-10-03T01:08:22.442Z,11.83
2022-10-03T01:10:09.405Z,11.79
2022-10-03T01:11:32.596Z,12.04
2022-10-03T01:12:59.657Z,12.14
2022-10-03T01:14:10.699Z,12.06
2022-10-03T01:15:22.764Z,11.96
2022-10-03T01:16:37.848Z,11.95
2022-10-03T01:18:27.718Z,11.87
2022-10-03T01:19:59.224Z,11.88
2022-10-03T01:21:01.411Z,11.91
2022-10-03T01:22:15.471Z,11.92
2022-10-03T01:23:32.623Z,11.89
2022-10-03T01:24:53.548Z,11.91
2022-10-03T01:26:20.146Z,11.98
2022-10-03T01:28:04.027Z,12.05
2022-10-03T01:29:36.530Z,12.07
2022-10-03T01:30:43.796Z,12.02
2022-10-03T01:32:24.313Z,11.99
2022-10-03T01:33:51.013Z,11.86
2022-10-03T01:35:00.400Z,11.88
2022-10-03T01:36:25.631Z,11.89
2022-10-03T01:37:40.279Z,11.86
2022-10-03T01:39:06.028Z,11.80
2022-10-03T01:40:13.942Z,11.76
2022-10-03T01:41:33.649Z,11.78
2022-10-03T01:42:53.324Z,11.83
2022-10-03T01:44:02.196Z,11.88
2022-10-03T01:45:15.466Z,11.91
2022-10-03T01:46:22.682Z,11.94
2022-10-03T01:47:37.538Z,11.83
2022-10-03T01:48:48.983Z,11.76
2022-10-03T01:50:04.293Z,11.78
2022-10-03T01:51:19.192Z,11.77
2022-10-03T01:52:41.398Z,11.63
2022-10-03T01:53:52.245Z,11.65
2022-10-03T01:55:08.181Z,11.67
2022-10-03T01:56:31.423Z,11.76
2022-10-03T01:58:12.689Z,11.65
2022-10-03T01:59:45.507Z,11.69
2022-10-03T02:00:56.431Z,11.88
2022-10-03T02:02:25.128Z,11.95
2022-10-03T02:03:35.067Z,11.97
2022-10-03T02:04:55.912Z,11.98
2022-10-03T02:06:19.534Z,11.81
2022-10-03T02:07:27.447Z,11.69
2022-10-03T02:09:20.549Z,11.74
2022-10-03T02:10:48.040Z,11.64
2022-10-03T02:11:50.156Z,11.59
2022-10-03T02:13:17.375Z,11.66
2022-10-03T02:14:31.516Z,11.54
2022-10-03T02:15:58.250Z,11.67
2022-10-03T02:17:09.677Z,11.56
2022-10-03T02:18:28.478Z,11.56
2022-10-03T02:19:56.075Z,11.55
2022-10-03T02:21:20.883Z,11.45
2022-10-03T02:22:42.520Z,11.34
2022-10-03T02:23:46.070Z,11.23
2022-10-03T02:24:56.030Z,11.32
2022-10-03T02:26:17.054Z,11.41
2022-10-03T02:27:41.390Z,11.42
2022-10-03T02:28:54.660Z,11.47
2022-10-03T02:30:19.838Z,11.29
2022-10-03T02:31:25.000Z,11.32
2022-10-03T02:33:01.278Z,11.24
2022-10-03T02:34:34.200Z,11.19
2022-10-03T02:35:43.148Z,11.13
2022-10-03T02:37:27.362Z,11.14
2022-10-03T02:38:50.862Z,11.23
2022-10-03T02:40:30.826Z,11.19
2022-10-03T02:41:39.374Z,11.18
2022-10-03T02:43:17.242Z,11.03
2022-10-03T02:44:37.367Z,11.09
2022-10-03T02:46:07.386Z,11.21
2022-10-03T02:47:46.257Z,11.27
2022-10-03T02:48:48.419Z,11.34
2022-10-03T02:49:59.342Z,11.40
2022-10-03T02:51:09.990Z,11.37
2022-10-03T02:52:18.165Z,11.45
2022-10-03T02:53:59.926Z,11.42
2022-10-03T02:55:14.447Z,11.46
2022-10-03T02:56:28.483Z,11.33
2022-10-03T02:57:54.786Z,11.28
2022-10-03T02:59:19.274Z,11.20
2022-10-03T03:00:32.375Z,11.23
2022-10-03T03:02:02.712Z,11.26
2022-10-03T03:03:52.426Z,11.29
2022-10-03T03:05:19.232Z,11.28
2022-10-03T03:06:54.049Z,11.25
2022-10-03T03:08:17.936Z,11.19
2022-10-03T03:09:25.841Z,11.24
2022-10-03T03:10:46.200Z,11.13
2022-10-03T03:12:16.376Z,11.03
2022-10-03T03:13:38.610Z,11.08
2022-10-03T03:14:57.165Z,11.05
2022-10-03T03:16:11.361Z,11.02
2022-10-03T03:17:30.949Z,11.05
2022-10-03T03:18:53.562Z,11.10
2022-10-03T03:20:01.677Z,11.07
2022-10-03T03:21:27.947Z,11.12
2022-10-03T03:22:36.642Z,11.14
2022-10-03T03:23:44.512Z,11.09
2022-10-03T03:25:26.663Z,11.06
2022-10-03T03:26:51.419Z,11.03
2022-10-03T03:28:19.493Z,11.05
2022-10-03T03:29:46.920Z,11.03
2022-10-03T03:31:11.046Z,11.11
2022-10-03T03:32:33.915Z,11.20
2022-10-03T03:33:58.422Z,11.35
2022-10-03T03:35:33.792Z,11.35
2022-10-03T03:36:46.656Z,11.37
2022-10-03T03:38:00.639Z,11.37
2022-10-03T03:39:08.426Z,11.45
2022-10-03T03:40:29.491Z,11.44
2022-10-03T03:41:50.939Z,11.60
2022-10-03T03:43:25.127Z,11.71
2022-10-03T03:44:45.771Z,11.82
2022-10-03T03:46:19.473Z,11.81
2022-10-03T03:48:00.543Z,11.89
2022-10-03T03:49:17.647Z,11.92
2022-10-03T03:50:48.408Z,11.82
2022-10-03T03:52:20.596Z,11.83
2022-10-03T03:53:36.581Z,11.94
2022-10-03T03:55:16.427Z,11.94
2022-10-03T03:56:37.134Z,11.82
2022-10-03T03:58:00.839Z,11.76
2022-10-03T03:59:14.927Z,11.74
2022-10-03T04:00:31.277Z,11.81
2022-10-03T04:01:59.142Z,11.88
2022-10-03T04:03:30.726Z,11.89
2022-10-03T04:04:51.951Z,11.65
2022-10-03T04:06:22.550Z,11.70
2022-10-03T04:07:43.945Z,11.77
2022-10-03T04:09:16.920Z,11.68
2022-10-03T04:10:38.286Z,11.54
2022-10-03T04:12:07.782Z,11.47
2022-10-03T04:14:03.056Z,11.42
2022-10-03T04:15:23.215Z,11.39
2022-10-03T04:16:46.642Z,11.43
2022-10-03T04:18:14.226Z,11.56
2022-10-03T04:19:37.319Z,11.70
2022-10-03T04:21:10.043Z,11.78
2022-10-03T04:22:41.238Z,11.80
2022-10-03T04:23:52.397Z,11.86
2022-10-03T04:25:26.245Z,11.82
2022-10-03T04:26:59.573Z,11.89
2022-10-03T04:28:34.334Z,11.82
2022-10-03T04:30:02.205Z,11.75
2022-10-03T04:31:25.900Z,11.73
2022-10-03T04:32:57.216Z,11.65
2022-10-03T04:34:23.609Z,11.46
2022-10-03T04:35:49.281Z,11.49
2022-10-03T04:37:06.683Z,11.52
2022-10-03T04:38:32.190Z,11.53
2022-10-03T04:39:58.397Z,11.55
2022-10-03T04:41:19.752Z,11.56
2022-10-03T04:42:50.446Z,11.57
2022-10-03T04:44:31.592Z,11.51
2022-10-03T04:45:45.895Z,11.52
2022-10-03T04:47:17.639Z,11.46
2022-10-03T04:48:19.755Z,11.51
2022-10-03T04:49:39.002Z,11.55
2022-10-03T04:50:45.349Z,11.48
2022-10-03T04:52:07.004Z,11.50
2022-10-03T04:53:46.207Z,11.47
2022-10-03T04:55:02.506Z,11.35
2022-10-03T04:56:23.067Z,11.26
2022-10-03T04:57:35.844Z,11.22
2022-10-03T04:58:57.481Z,11.24
2022-10-03T05:00:08.560Z,11.24
2022-10-03T05:01:49.339Z,11.29
2022-10-03T05:03:13.192Z,11.22
2022-10-03T05:04:29.813Z,11.20
2022-10-03T05:05:47.414Z,11.23
2022-10-03T05:07:14.393Z,11.25
2022-10-03T05:08:39.462Z,11.27
2022-10-03T05:10:17.135Z,11.27
2022-10-03T05:11:58.648Z,11.19
2022-10-03T05:13:16.333Z,11.21
2022-10-03T05:14:22.360Z,11.17
2022-10-03T05:15:29.420Z,11.16
2022-10-03T05:16:40.229Z,11.08
2022-10-03T05:18:01.319Z,11.18
2022-10-03T05:19:37.244Z,11.21
2022-10-03T05:20:57.830Z,11.23
2022-10-03T05:22:19.079Z,11.25
2022-10-03T05:23:31.185Z,11.21
2022-10-03T05:24:34.174Z,11.22
2022-10-03T05:25:39.962Z,11.20
2022-10-03T05:26:53.894Z,11.17
2022-10-03T05:28:12.025Z,11.20
2022-10-03T05:29:25.238Z,11.24
2022-10-03T05:30:57.043Z,11.21
2022-10-03T05:32:16.864Z,11.16
2022-10-03T05:33:31.491Z,11.12
2022-10-03T05:34:55.312Z,11.12
2022-10-03T05:36:16.003Z,11.10
2022-10-03T05:37:20.854Z,11.07
2022-10-03T05:38:53.131Z,11.00
2022-10-03T05:40:15.067Z,10.95
2022-10-03T05:41:17.197Z,10.95
2022-10-03T05:42:25.076Z,10.91
2022-10-03T05:43:46.119Z,10.90
2022-10-03T05:45:11.148Z,10.96
2022-10-03T05:46:21.136Z,11.02
2022-10-03T05:47:44.740Z,11.04
2022-10-03T05:49:32.288Z,11.02
2022-10-03T05:51:02.992Z,11.03
2022-10-03T05:52:50.297Z,10.97
2022-10-03T05:54:16.645Z,10.90
2022-10-03T05:55:41.969Z,10.90
2022-10-03T05:56:52.772Z,10.97
2022-10-03T05:58:20.092Z,10.91
2022-10-03T05:59:59.995Z,10.66
2022-10-03T06:01:30.855Z,10.74
2022-10-03T06:02:54.738Z,10.81
2022-10-03T06:04:42.041Z,10.84
2022-10-03T06:06:24.557Z,10.83
2022-10-03T06:08:04.833Z,10.76
2022-10-03T06:09:30.576Z,10.86
2022-10-03T06:10:51.908Z,10.90
2022-10-03T06:12:04.535Z,10.92
2022-10-03T06:13:37.843Z,10.94
2022-10-03T06:15:03.186Z,10.97
2022-10-03T06:16:16.820Z,11.03
2022-10-03T06:17:27.766Z,11.06
2022-10-03T06:18:54.969Z,11.11
2022-10-03T06:20:34.520Z,11.10
2022-10-03T06:21:57.621Z,11.15
2022-10-03T06:23:17.633Z,11.17
2022-10-03T06:24:49.257Z,10.86
2022-10-03T06:26:24.204Z,11.01
2022-10-03T06:27:38.291Z,11.14
2022-10-03T06:29:15.596Z,11.29
2022-10-03T06:30:32.774Z,11.31
2022-10-03T06:32:18.375Z,11.32
2022-10-03T06:33:58.580Z,11.33
2022-10-03T06:35:18.910Z,11.20
2022-10-03T06:36:45.765Z,10.97
2022-10-03T06:38:15.490Z,10.95
2022-10-03T06:39:55.179Z,10.98
2022-10-03T06:41:15.108Z,10.94
2022-10-03T06:42:41.203Z,10.76
2022-10-03T06:44:15.017Z,10.74
2022-10-03T06:45:41.886Z,10.96
2022-10-03T06:47:03.213Z,11.22
2022-10-03T06:48:23.632Z,11.34
2022-10-03T06:49:34.767Z,11.33
2022-10-03T06:50:51.865Z,11.29
2022-10-03T06:52:25.397Z,11.32
2022-10-03T06:53:40.541Z,11.31
2022-10-03T06:55:10.424Z,11.26
2022-10-03T06:56:44.190Z,11.44
2022-10-03T06:58:27.469Z,11.34
2022-10-03T06:59:47.642Z,11.27
2022-10-03T07:01:11.328Z,11.46
2022-10-03T07:02:48.697Z,11.69
2022-10-03T07:04:02.729Z,11.74
2022-10-03T07:05:25.079Z,11.81
2022-10-03T07:06:46.027Z,11.77
2022-10-03T07:08:11.985Z,11.75
2022-10-03T07:09:57.983Z,11.90
2022-10-03T07:11:14.431Z,11.94
2022-10-03T07:13:04.944Z,11.93
2022-10-03T07:14:35.205Z,11.85
2022-10-03T07:16:08.673Z,11.68
2022-10-03T07:17:11.157Z,11.70
2022-10-03T07:18:25.123Z,11.75
2022-10-03T07:20:12.274Z,11.80
2022-10-03T07:21:32.391Z,12.05
2022-10-03T07:22:52.937Z,12.13
2022-10-03T07:24:28.822Z,12.16
2022-10-03T07:26:06.993Z,12.36
2022-10-03T07:27:30.758Z,12.40
2022-10-03T07:28:56.695Z,12.35
2022-10-03T07:30:24.250Z,12.32
2022-10-03T07:31:32.285Z,12.47
2022-10-03T07:32:37.096Z,12.44
2022-10-03T07:33:53.001Z,12.24
2022-10-03T07:35:19.745Z,12.23
2022-10-03T07:36:49.470Z,12.13
2022-10-03T07:38:53.724Z,11.77
2022-10-03T07:40:33.227Z,11.63
2022-10-03T07:41:41.547Z,11.52
2022-10-03T07:43:11.540Z,11.39
2022-10-03T07:44:35.775Z,11.49
2022-10-03T07:45:45.245Z,11.50
2022-10-03T07:47:05.986Z,11.46
2022-10-03T07:48:28.431Z,11.52
2022-10-03T07:49:54.834Z,11.66
2022-10-03T07:51:14.159Z,11.88
2022-10-03T07:52:39.383Z,12.04
2022-10-03T07:54:18.675Z,12.20
2022-10-03T07:55:29.786Z,12.40
2022-10-03T07:57:09.749Z,12.38
2022-10-03T07:58:26.220Z,12.32
2022-10-03T07:59:46.323Z,12.37
2022-10-03T08:01:21.386Z,12.32
2022-10-03T08:02:26.792Z,12.25
2022-10-03T08:03:46.975Z,12.35
2022-10-03T08:05:12.111Z,12.48
2022-10-03T08:06:21.035Z,12.40
2022-10-03T08:07:51.110Z,12.33
2022-10-03T08:09:23.451Z,12.39
2022-10-03T08:11:06.542Z,12.43
2022-10-03T08:12:33.789Z,12.42
2022-10-03T08:14:18.617Z,12.46
2022-10-03T08:15:50.126Z,12.59
2022-10-03T08:17:22.805Z,12.58
2022-10-03T08:19:02.381Z,12.67
2022-10-03T08:20:26.245Z,12.82
2022-10-03T08:21:45.911Z,12.89
2022-10-03T08:23:25.368Z,12.99
2022-10-03T08:24:48.950Z,13.19
2022-10-03T08:26:09.146Z,13.20
2022-10-03T08:27:26.202Z,13.16
2022-10-03T08:28:44.995Z,13.11
2022-10-03T08:29:55.778Z,13.16
2022-10-03T08:31:03.814Z,13.19
2022-10-03T08:32:08.644Z,13.28
2022-10-03T08:33:31.694Z,13.36
2022-10-03T08:35:12.150Z,13.31
2022-10-03T08:36:48.385Z,13.25
2022-10-03T08:38:28.063Z,13.49
2022-10-03T08:39:48.260Z,13.64
2022-10-03T08:40:56.949Z,13.76
2022-10-03T08:41:59.065Z,13.81
2022-10-03T08:43:10.795Z,14.07
2022-10-03T08:44:46.725Z,14.32
2022-10-03T08:46:07.079Z,14.66
2022-10-03T08:47:25.307Z,14.82
2022-10-03T08:48:46.363Z,14.96
2022-10-03T08:50:12.711Z,15.04
2022-10-03T08:51:38.054Z,15.61
2022-10-03T08:53:13.920Z,15.74
2022-10-03T08:54:19.343Z,16.34
2022-10-03T08:55:55.641Z,16.58
2022-10-03T08:57:25.085Z,16.56
2022-10-03T08:58:52.101Z,16.57
2022-10-03T09:00:03.382Z,16.91
2022-10-03T09:01:31.147Z,16.87
2022-10-03T09:05:02.339Z,16.88
2022-10-03T09:06:58.593Z,16.54
2022-10-03T09:08:51.049Z,16.06
2022-10-03T09:09:55.951Z,15.85
2022-10-03T09:11:10.693Z,15.91
2022-10-03T09:12:50.568Z,15.52
2022-10-03T09:14:29.552Z,15.35
2022-10-03T09:16:09.166Z,15.20
2022-10-03T09:18:00.923Z,14.87
2022-10-03T09:19:05.782Z,15.01
2022-10-03T09:20:26.397Z,15.06
2022-10-03T09:21:46.920Z,15.11
2022-10-03T09:23:30.433Z,14.92
2022-10-03T09:25:09.472Z,14.82
2022-10-03T09:26:47.956Z,14.17
2022-10-03T09:27:58.992Z,13.63
2022-10-03T09:29:38.048Z,13.84
2022-10-03T09:30:57.480Z,13.95
2022-10-03T09:32:43.359Z,13.58
2022-10-03T09:34:25.893Z,13.67
2022-10-03T09:35:46.677Z,13.74
2022-10-03T09:37:07.114Z,13.46
2022-10-03T09:38:33.955Z,13.30
2022-10-03T09:39:54.570Z,13.41
2022-10-03T09:41:11.863Z,13.47
2022-10-03T09:42:35.376Z,13.39
2022-10-03T09:43:53.143Z,13.40
2022-10-03T09:45:16.446Z,13.54
2022-10-03T09:46:33.625Z,13.60
2022-10-03T09:48:16.103Z,13.88
2022-10-03T09:49:42.395Z,13.91
2022-10-03T09:51:10.886Z,14.00
2022-10-03T09:52:44.451Z,14.02
2022-10-03T09:54:18.602Z,14.14
2022-10-03T09:56:06.857Z,14.54
2022-10-03T09:57:25.129Z,15.05
2022-10-03T09:58:55.882Z,15.21
2022-10-03T10:00:08.707Z,16.05
2022-10-03T10:01:20.059Z,16.41
2022-10-03T10:02:46.558Z,16.63
2022-10-03T10:04:32.662Z,16.90
2022-10-03T10:06:08.961Z,17.48
2022-10-03T10:07:48.420Z,17.15
2022-10-03T10:09:16.667Z,17.88
2022-10-03T10:10:27.897Z,18.21
2022-10-03T10:11:34.944Z,18.58
2022-10-03T10:13:19.124Z,17.55
2022-10-03T10:14:40.141Z,16.25
2022-10-03T10:16:08.272Z,15.46
2022-10-03T10:17:22.852Z,15.41
2022-10-03T10:18:47.787Z,15.67
2022-10-03T10:20:01.185Z,15.75
2022-10-03T10:21:42.922Z,14.82
2022-10-03T10:23:21.510Z,15.18
2022-10-03T10:24:53.022Z,15.40
2022-10-03T10:26:20.236Z,15.61
2022-10-03T10:27:44.215Z,15.82
2022-10-03T10:28:55.254Z,16.09
2022-10-03T10:30:09.500Z,16.15
2022-10-03T10:31:38.635Z,15.49
2022-10-03T10:33:00.600Z,14.90
2022-10-03T10:34:14.553Z,15.00
2022-10-03T10:35:35.280Z,15.03
2022-10-03T10:36:58.531Z,15.07
2022-10-03T10:38:25.969Z,15.52
2022-10-03T10:39:33.898Z,15.82
2022-10-03T10:40:59.843Z,15.89
2022-10-03T10:42:29.472Z,15.93
2022-10-03T10:43:59.362Z,15.84
2022-10-03T10:45:47.071Z,15.74
2022-10-03T10:47:27.371Z,15.73
2022-10-03T10:49:04.637Z,15.71
2022-10-03T10:50:24.832Z,15.75
2022-10-03T10:51:45.079Z,15.50
2022-10-03T10:52:58.907Z,15.47
2022-10-03T10:54:36.786Z,15.25
2022-10-03T10:56:15.983Z,15.30
2022-10-03T10:58:12.248Z,16.61
2022-10-03T10:59:48.293Z,17.77
2022-10-03T11:01:15.753Z,17.74
2022-10-03T11:02:53.310Z,16.99
2022-10-03T11:04:19.445Z,16.91
2022-10-03T11:05:42.429Z,17.74
2022-10-03T11:07:03.104Z,17.76
2022-10-03T11:08:45.381Z,17.35
2022-10-03T11:10:25.231Z,17.91
2022-10-03T11:11:36.251Z,16.95
2022-10-03T11:13:46.091Z,15.48
2022-10-03T11:15:28.667Z,15.27
2022-10-03T11:16:49.295Z,15.75
2022-10-03T11:18:21.100Z,16.20
2022-10-03T11:19:41.854Z,16.46
2022-10-03T11:21:01.927Z,16.57
2022-10-03T11:22:48.360Z,16.72
2022-10-03T11:24:27.104Z,16.52
2022-10-03T11:26:06.776Z,16.71
2022-10-03T11:27:24.319Z,16.84
2022-10-03T11:28:47.608Z,16.77
2022-10-03T11:30:09.720Z,16.34
2022-10-03T11:32:08.236Z,16.00
2022-10-03T11:33:40.440Z,16.70
2022-10-03T11:34:54.055Z,17.84
2022-10-03T11:36:14.713Z,17.92
2022-10-03T11:37:39.586Z,18.15
2022-10-03T11:39:05.320Z,18.23
2022-10-03T11:40:41.110Z,18.39
2022-10-03T11:42:02.640Z,18.78
2022-10-03T11:43:42.676Z,18.79
2022-10-03T11:44:58.631Z,17.16
2022-10-03T11:46:20.701Z,17.13
2022-10-03T11:47:51.114Z,17.80
2022-10-03T11:49:22.409Z,17.85
2022-10-03T11:50:47.634Z,17.86
2022-10-03T11:51:57.032Z,18.08
2022-10-03T11:53:37.222Z,17.77
2022-10-03T11:54:44.029Z,17.69
2022-10-03T11:56:14.998Z,17.51
2022-10-03T11:57:32.390Z,17.57
2022-10-03T11:59:12.651Z,17.52
2022-10-03T12:00:20.670Z,17.59
2022-10-03T12:01:28.870Z,17.45
2022-10-03T12:03:08.320Z,17.28
2022-10-03T12:04:17.505Z,17.48
2022-10-03T12:05:44.361Z,17.61
2022-10-03T12:07:34.027Z,17.69
2022-10-03T12:08:55.540Z,17.57
2022-10-03T12:10:32.801Z,17.78
2022-10-03T12:12:30.655Z,18.47
2022-10-03T12:13:38.679Z,18.48
2022-10-03T12:14:47.072Z,18.79
2022-10-03T12:15:52.103Z,18.89
2022-10-03T12:17:16.685Z,18.74
2022-10-03T12:18:42.397Z,18.47
2022-10-03T12:20:02.249Z,18.56
2022-10-03T12:21:17.384Z,18.85
2022-10-03T12:22:42.095Z,18.68
2022-10-03T12:23:57.066Z,18.24
2022-10-03T12:25:19.047Z,18.08
2022-10-03T12:26:31.973Z,17.88
2022-10-03T12:27:49.325Z,17.97
2022-10-03T12:28:55.988Z,17.95
2022-10-03T12:30:02.491Z,17.83
2022-10-03T12:31:21.381Z,17.96
2022-10-03T12:32:48.825Z,18.00
2022-10-03T12:34:32.307Z,17.99
2022-10-03T12:36:03.807Z,17.20
2022-10-03T12:37:34.106Z,16.64
2022-10-03T12:38:51.419Z,17.21
2022-10-03T12:40:33.631Z,17.51
2022-10-03T12:41:55.850Z,17.41
2022-10-03T12:43:10.639Z,17.33
2022-10-03T12:44:37.322Z,17.51
2022-10-03T12:45:43.273Z,17.65
2022-10-03T12:46:59.847Z,17.67
2022-10-03T12:48:19.646Z,17.64
2022-10-03T12:49:40.716Z,17.55
2022-10-03T12:51:04.010Z,17.28
2022-10-03T12:52:39.525Z,17.20
2022-10-03T12:54:24.660Z,17.21
2022-10-03T12:55:33.574Z,16.55
2022-10-03T12:56:48.357Z,15.85
2022-10-03T12:58:14.605Z,15.72
2022-10-03T12:59:40.774Z,15.83
2022-10-03T13:01:04.830Z,15.32
2022-10-03T13:02:18.923Z,15.49
2022-10-03T13:03:30.904Z,15.36
2022-10-03T13:05:10.408Z,15.32
2022-10-03T13:07:01.705Z,15.57
2022-10-03T13:08:31.803Z,15.66
2022-10-03T13:10:12.863Z,15.78
2022-10-03T13:11:51.037Z,15.86
2022-10-03T13:12:56.072Z,16.08
2022-10-03T13:14:06.630Z,16.32
2022-10-03T13:15:45.861Z,16.42
2022-10-03T13:16:54.234Z,16.65
2022-10-03T13:17:56.380Z,16.77
2022-10-03T13:19:20.389Z,16.95
2022-10-03T13:20:34.214Z,16.95
2022-10-03T13:21:54.375Z,16.85
2022-10-03T13:23:24.374Z,16.39
2022-10-03T13:24:32.092Z,16.68
2022-10-03T13:25:48.399Z,17.10
2022-10-03T13:27:09.060Z,16.97
2022-10-03T13:28:27.315Z,17.08
2022-10-03T13:29:43.881Z,17.05
2022-10-03T13:30:54.010Z,17.25
2022-10-03T13:32:17.075Z,17.47
2022-10-03T13:33:32.744Z,17.74
2022-10-03T13:34:50.079Z,17.97
2022-10-03T13:36:10.086Z,18.08
2022-10-03T13:37:37.078Z,17.64
2022-10-03T13:39:07.869Z,17.45
2022-10-03T13:40:15.821Z,17.36
2022-10-03T13:41:29.882Z,17.62
2022-10-03T13:42:53.702Z,17.91
2022-10-03T13:44:14.831Z,18.05
2022-10-03T13:45:26.267Z,18.05
2022-10-03T13:46:44.942Z,18.26
2022-10-03T13:48:05.193Z,18.42
2022-10-03T13:49:35.564Z,17.83
2022-10-03T13:51:02.285Z,17.65
2022-10-03T13:52:22.118Z,17.73
2022-10-03T13:53:43.315Z,17.48
2022-10-03T13:55:36.354Z,17.80
2022-10-03T13:56:55.766Z,17.77
2022-10-03T13:58:38.888Z,17.53
2022-10-03T14:00:19.889Z,17.46
2022-10-03T14:01:34.907Z,17.82
2022-10-03T14:03:04.826Z,18.24
2022-10-03T14:04:35.612Z,18.36
2022-10-03T14:06:00.633Z,18.20
2022-10-03T14:07:13.876Z,17.55
2022-10-03T14:08:38.137Z,17.60
2022-10-03T14:10:09.122Z,17.54
2022-10-03T14:11:22.725Z,17.26
2022-10-03T14:13:02.340Z,17.17
2022-10-03T14:14:38.217Z,16.94
2022-10-03T14:16:00.808Z,16.48
2022-10-03T14:17:24.521Z,16.37
2022-10-03T14:18:59.488Z,16.61
2022-10-03T14:20:07.496Z,16.46
2022-10-03T14:21:32.092Z,16.50
2022-10-03T14:22:46.135Z,16.62
2022-10-03T14:23:59.379Z,16.54
2022-10-03T14:25:28.341Z,16.66
2022-10-03T14:27:02.178Z,16.67
2022-10-03T14:28:20.199Z,16.37
2022-10-03T14:29:43.982Z,16.19
2022-10-03T14:31:08.009Z,16.38
2022-10-03T14:32:46.259Z,16.72
2022-10-03T14:34:02.827Z,16.92
2022-10-03T14:35:19.347Z,17.49
2022-10-03T14:36:46.580Z,16.80
2022-10-03T14:38:00.281Z,16.34
2022-10-03T14:39:36.750Z,15.91
2022-10-03T14:40:48.117Z,15.70
2022-10-03T14:41:56.170Z,15.60
2022-10-03T14:43:35.784Z,15.47
2022-10-03T14:44:43.644Z,15.56
2022-10-03T14:45:49.665Z,15.38
2022-10-03T14:46:59.187Z,15.47
2022-10-03T14:48:08.213Z,15.44
2022-10-03T14:49:48.520Z,15.54
2022-10-03T14:50:44.423Z,15.46
2022-10-03T14:51:54.937Z,15.24
2022-10-03T14:53:10.856Z,15.44
2022-10-03T14:54:21.404Z,15.44
2022-10-03T14:55:30.272Z,15.44
2022-10-03T14:56:41.146Z,15.65
2022-10-03T14:58:11.457Z,15.98
2022-10-03T14:59:26.026Z,16.17
2022-10-03T15:00:43.467Z,15.98
2022-10-03T15:01:54.596Z,15.72
2022-10-03T15:02:56.915Z,15.65
2022-10-03T15:04:03.998Z,15.92
2022-10-03T15:05:19.009Z,15.81
2022-10-03T15:06:33.238Z,15.51
2022-10-03T15:07:39.255Z,15.31
2022-10-03T15:08:45.374Z,15.56
2022-10-03T15:09:50.303Z,15.69
2022-10-03T15:10:55.712Z,15.79
2022-10-03T15:12:24.436Z,15.86
2022-10-03T15:13:28.929Z,15.87
2022-10-03T15:14:35.766Z,15.88
2022-10-03T15:15:40.322Z,15.89
2022-10-03T15:17:03.924Z,15.86
2022-10-03T15:18:13.292Z,15.84
2022-10-03T15:19:20.740Z,15.88
2022-10-03T15:20:36.731Z,15.87
2022-10-03T15:21:44.048Z,16.03
2022-10-03T15:22:55.902Z,16.07
2022-10-03T15:24:02.676Z,16.02
2022-10-03T15:25:13.950Z,16.04
2022-10-03T15:26:20.653Z,15.93
2022-10-03T15:27:24.092Z,16.00
2022-10-03T15:28:41.204Z,16.11
2022-10-03T15:29:45.524Z,16.15
2022-10-03T15:30:50.763Z,16.09
2022-10-03T15:31:54.953Z,16.12
2022-10-03T15:33:19.759Z,16.10
2022-10-03T15:34:27.614Z,16.15
2022-10-03T15:35:31.487Z,16.09
2022-10-03T15:36:38.464Z,16.18
2022-10-03T15:37:46.917Z,16.28
2022-10-03T15:38:53.952Z,16.30
2022-10-03T15:40:02.762Z,16.31
2022-10-03T15:41:36.834Z,16.29
2022-10-03T15:42:53.692Z,16.36
2022-10-03T15:44:04.869Z,16.38
2022-10-03T15:45:17.233Z,16.39
2022-10-03T15:46:36.381Z,16.33
2022-10-03T15:47:45.106Z,16.15
2022-10-03T15:48:54.082Z,16.05
2022-10-03T15:50:07.119Z,16.00
2022-10-03T15:51:19.595Z,16.07
2022-10-03T15:52:31.647Z,16.05
2022-10-03T15:53:38.003Z,15.98
2022-10-03T15:54:45.371Z,15.96
2022-10-03T15:55:52.000Z,15.94
2022-10-03T15:56:58.201Z,15.92
2022-10-03T15:58:22.381Z,15.84
2022-10-03T15:59:34.483Z,15.75
2022-10-03T16:00:37.818Z,15.69
2022-10-03T16:01:47.121Z,15.66
2022-10-03T16:02:55.959Z,15.64
2022-10-03T16:04:01.790Z,15.59
2022-10-03T16:05:19.545Z,15.62
2022-10-03T16:06:49.759Z,15.61
2022-10-03T16:07:54.773Z,15.53
2022-10-03T16:09:11.761Z,15.47
2022-10-03T16:10:20.394Z,15.38
2022-10-03T16:11:28.504Z,15.41
2022-10-03T16:13:15.999Z,15.31
2022-10-03T16:14:24.964Z,15.30
2022-10-03T16:15:41.485Z,15.30
2022-10-03T16:16:50.245Z,15.31
2022-10-03T16:17:59.484Z,15.26
2022-10-03T16:19:24.506Z,15.17
2022-10-03T16:20:39.168Z,15.11
2022-10-03T16:22:18.700Z,15.13
2022-10-03T16:23:34.923Z,15.08
2022-10-03T16:25:06.720Z,14.96
2022-10-03T16:26:20.679Z,14.89
2022-10-03T16:27:26.085Z,14.85
2022-10-03T16:28:43.258Z,14.88
2022-10-03T16:30:14.781Z,14.84
2022-10-03T16:31:20.786Z,14.76
2022-10-03T16:32:26.155Z,14.64
2022-10-03T16:33:34.715Z,14.58
2022-10-03T16:34:43.667Z,14.49
2022-10-03T16:35:50.698Z,14.37
2022-10-03T16:36:54.234Z,14.33
2022-10-03T16:37:56.919Z,14.25
2022-10-03T16:39:01.596Z,14.19
2022-10-03T16:40:07.311Z,14.03
2022-10-03T16:41:36.313Z,13.94
2022-10-03T16:42:45.244Z,13.92
2022-10-03T16:44:01.739Z,13.84
2022-10-03T16:45:05.849Z,13.78
2022-10-03T16:46:19.161Z,13.75
2022-10-03T16:47:36.389Z,13.72
2022-10-03T16:49:02.151Z,13.65
2022-10-03T16:50:26.141Z,13.57
2022-10-03T16:51:39.653Z,13.54
2022-10-03T16:52:45.597Z,13.47
2022-10-03T16:53:54.338Z,13.35
2022-10-03T16:55:04.698Z,13.25
2022-10-03T16:56:08.213Z,13.23
2022-10-03T16:57:18.994Z,13.16
2022-10-03T16:58:45.626Z,13.25
2022-10-03T16:59:51.983Z,13.20
2022-10-03T17:01:28.208Z,13.12
2022-10-03T17:02:30.086Z,13.03
2022-10-03T17:03:40.902Z,13.00
2022-10-03T17:04:54.917Z,13.00
2022-10-03T17:06:03.373Z,12.99
2022-10-03T17:07:23.639Z,12.92
2022-10-03T17:08:41.849Z,12.88
2022-10-03T17:09:53.325Z,12.70
2022-10-03T17:11:00.200Z,12.59
2022-10-03T17:12:06.195Z,12.63
2022-10-03T17:13:55.303Z,12.60
2022-10-03T17:15:22.370Z,12.52
2022-10-03T17:16:45.025Z,12.39
2022-10-03T17:17:59.764Z,12.38
2022-10-03T17:19:20.829Z,12.32
2022-10-03T17:20:41.947Z,12.34
2022-10-03T17:21:54.528Z,12.28
2022-10-03T17:23:02.106Z,12.26
2022-10-03T17:24:11.807Z,12.18
2022-10-03T17:25:32.431Z,12.11
2022-10-03T17:26:39.198Z,12.09
2022-10-03T17:27:43.192Z,12.10
2022-10-03T17:29:03.478Z,12.05
2022-10-03T17:30:19.965Z,11.91
2022-10-03T17:31:35.912Z,11.90
2022-10-03T17:32:42.208Z,11.90
2022-10-03T17:33:52.740Z,11.83
2022-10-03T17:35:17.538Z,11.82
2022-10-03T17:36:56.680Z,11.76
2022-10-03T17:38:19.608Z,11.70
2022-10-03T17:39:47.799Z,11.70
2022-10-03T17:41:08.823Z,11.63
2022-10-03T17:42:32.794Z,11.62
2022-10-03T17:43:47.630Z,11.59